Edgeworth, Pennsylvania
Current Conditions -  °F | °C
As of 6:51 PM on Saturday 22 Nov 2014 (Local Time) from KPIT Reporting Station
Overcast Overcast  
Wind Chill:   Ceiling: 5500
Heat Index:   Visibility: 10mi
Dew Point:   Wind: 7mph
Humidity: 60%   Direction: 190°S
Pressure: 30.13"   Gusts: NA
Location:  40.5741°N, 80.1457°W
Report Text: KPIT 222351Z 19006KT 10SM BKN055 OVC095 07/00 A3013 RMK AO2 SLP223 T00720000 10078 20028 57008
Loading
Personal Weather Stations






























Interactive Weather Map New forecast layout! Learn more

10-Day Weather Forecast

Advertisements
Track Severe Weather on mobile